Time;durP1;ratioP1;P1;durP2;ratioP2;P2;SDS_P1;SDS_P2;PMS_P1;PMS_P2;Temp;Humidity;BMP_temperature;BMP_pressure;BME280_temperature;BME280_humidity;BME280_pressure;Samples;Min_cycle;Max_cycle;Signal;HPM_P1;HPM_P2
2022/10/03 00:02:35;;;;;;;1.23;1.00;;;9.80;99.90;9.70;100820.00;;;;4947025;28;102009;-60
2022/10/03 00:05:32;;;;;;;5.83;1.70;;;9.70;99.90;9.60;100812.00;;;;4982213;28;88597;-60
2022/10/03 00:08:27;;;;;;;1.30;1.20;;;9.80;99.90;9.70;100824.00;;;;4983840;28;87282;-61
2022/10/03 00:11:38;;;;;;;4.13;1.37;;;9.80;99.90;9.70;100825.00;;;;4976299;28;87173;-61
2022/10/03 00:15:03;;;;;;;3.90;1.33;;;9.70;99.90;9.60;100831.00;;;;4983531;28;87621;-62
2022/10/03 00:17:56;;;;;;;2.63;1.43;;;9.80;99.90;9.70;100826.00;;;;4958923;28;88404;-61
2022/10/03 00:20:48;;;;;;;1.93;0.90;;;9.70;99.90;9.70;100825.00;;;;4971186;28;99180;-62
2022/10/03 00:23:34;;;;;;;8.90;1.67;;;9.70;99.90;9.70;100834.00;;;;5016255;28;87442;-61
2022/10/03 00:26:32;;;;;;;2.67;1.30;;;9.70;99.90;9.70;100837.00;;;;5002288;28;88025;-62
2022/10/03 00:29:43;;;;;;;2.00;1.57;;;9.70;99.90;9.60;100843.00;;;;4985558;28;93378;-62
2022/10/03 00:32:53;;;;;;;5.03;2.13;;;9.70;99.90;9.60;100847.00;;;;4985216;28;88521;-62
2022/10/03 00:35:33;;;;;;;4.33;1.90;;;9.70;99.90;9.60;100845.00;;;;4981488;28;87483;-63
2022/10/03 00:39:05;;;;;;;1.43;1.33;;;9.70;99.90;9.60;100845.00;;;;4988360;28;99738;-62
2022/10/03 00:42:13;;;;;;;2.00;0.90;;;9.70;99.90;9.60;100845.00;;;;4985618;28;88907;-62
2022/10/03 00:45:20;;;;;;;3.20;1.30;;;9.70;99.90;9.60;100845.00;;;;5007023;28;87280;-62
2022/10/03 00:48:06;;;;;;;2.20;1.50;;;9.70;99.90;9.60;100852.00;;;;4990430;28;86855;-63
2022/10/03 00:51:05;;;;;;;1.87;1.03;;;9.70;99.90;9.60;100852.00;;;;4987645;28;87498;-62
2022/10/03 00:53:56;;;;;;;1.30;0.90;;;9.70;99.90;9.60;100854.00;;;;4983066;28;87888;-62
2022/10/03 00:57:03;;;;;;;1.90;1.07;;;9.70;99.90;9.70;100855.00;;;;4991675;28;88657;-63
2022/10/03 01:00:07;;;;;;;3.30;1.40;;;9.70;99.90;9.70;100859.00;;;;4996947;28;87522;-62
2022/10/03 01:02:46;;;;;;;3.13;1.83;;;9.80;99.90;9.80;100867.00;;;;4993019;28;87705;-62
2022/10/03 01:05:41;;;;;;;5.43;1.73;;;9.80;99.90;9.80;100863.00;;;;4995380;28;88415;-62
2022/10/03 01:08:51;;;;;;;2.20;1.60;;;9.90;99.90;9.90;100855.00;;;;4994467;28;87440;-62
2022/10/03 01:11:46;;;;;;;3.70;1.57;;;10.00;99.90;10.00;100847.00;;;;4985895;28;87376;-62
2022/10/03 01:14:46;;;;;;;4.93;1.20;;;10.00;99.90;10.00;100855.00;;;;5020512;28;88172;-62
2022/10/03 01:18:09;;;;;;;2.77;1.20;;;10.00;99.90;10.10;100856.00;;;;4995961;28;87776;-61
2022/10/03 01:20:51;;;;;;;2.00;1.70;;;10.10;99.90;10.10;100855.00;;;;4993830;28;87679;-63
2022/10/03 01:23:51;;;;;;;5.37;1.57;;;10.20;99.90;10.10;100846.00;;;;4991383;28;105432;-62
2022/10/03 01:26:52;;;;;;;1.77;1.50;;;10.20;99.90;10.10;100865.00;;;;4992975;28;88489;-62
2022/10/03 01:32:46;;;;;;;3.50;1.90;;;10.30;99.90;10.20;100858.00;;;;4986145;28;87021;-63
2022/10/03 01:35:36;;;;;;;4.43;1.27;;;10.30;99.90;10.30;100851.00;;;;4984511;28;87346;-62
2022/10/03 01:38:20;;;;;;;3.37;1.30;;;10.30;99.90;10.30;100855.00;;;;4997243;28;87441;-62
2022/10/03 01:41:05;;;;;;;4.30;1.23;;;10.40;99.90;10.30;100851.00;;;;4997260;28;87840;-63
2022/10/03 01:43:46;;;;;;;1.83;1.33;;;10.40;99.90;10.40;100859.00;;;;4994167;28;87910;-62
2022/10/03 01:46:22;;;;;;;5.27;1.37;;;10.40;99.90;10.40;100859.00;;;;4997426;28;86613;-63
2022/10/03 01:49:00;;;;;;;6.07;1.43;;;10.50;99.90;10.50;100862.00;;;;4992314;28;95907;-63
2022/10/03 01:51:53;;;;;;;4.97;1.77;;;10.50;99.90;10.50;100865.00;;;;4984613;28;91769;-62
2022/10/03 01:54:57;;;;;;;1.00;0.90;;;10.60;99.90;10.50;100860.00;;;;5008000;28;93091;-63
2022/10/03 01:57:48;;;;;;;4.40;1.47;;;10.60;99.90;10.60;100877.00;;;;4993522;28;88242;-63
2022/10/03 02:00:19;;;;;;;4.70;1.57;;;10.60;99.90;10.60;100884.00;;;;5023853;28;87524;-62
2022/10/03 02:03:06;;;;;;;6.87;1.70;;;10.70;99.90;10.60;100875.00;;;;4986025;28;88115;-62
2022/10/03 02:06:02;;;;;;;3.67;1.60;;;10.70;99.90;10.70;100882.00;;;;4987395;28;87942;-62
2022/10/03 02:08:42;;;;;;;3.53;1.00;;;10.70;99.90;10.70;100886.00;;;;5018545;28;104385;-62
2022/10/03 02:11:22;;;;;;;3.40;1.70;;;10.70;99.90;10.70;100879.00;;;;4991620;28;87753;-62
2022/10/03 02:14:19;;;;;;;9.30;1.57;;;10.80;99.90;10.70;100888.00;;;;4993566;28;107216;-63
2022/10/03 02:17:07;;;;;;;3.63;1.60;;;10.80;99.90;10.80;100890.00;;;;4989280;28;87591;-60
2022/10/03 02:19:47;;;;;;;4.27;1.50;;;10.80;99.90;10.80;100898.00;;;;5001974;28;87602;-60
2022/10/03 02:22:41;;;;;;;4.37;1.60;;;10.80;99.90;10.80;100895.00;;;;4989921;28;88282;-60
2022/10/03 02:25:34;;;;;;;1.40;0.90;;;10.90;99.90;10.90;100895.00;;;;5015290;28;88479;-60
2022/10/03 02:28:32;;;;;;;2.03;0.87;;;10.90;99.90;10.90;100889.00;;;;4982632;28;103238;-60
2022/10/03 02:31:46;;;;;;;8.20;1.53;;;11.00;99.90;10.90;100896.00;;;;4978543;28;87852;-60
2022/10/03 02:34:31;;;;;;;3.27;1.60;;;11.00;99.90;11.00;100890.00;;;;4977665;28;87314;-60
2022/10/03 02:37:06;;;;;;;4.00;1.50;;;11.00;99.90;11.00;100905.00;;;;4989866;28;88846;-60
2022/10/03 02:39:53;;;;;;;1.17;0.67;;;11.00;99.90;11.00;100919.00;;;;5002034;28;87498;-60
2022/10/03 02:42:49;;;;;;;1.87;1.00;;;11.00;99.90;11.00;100916.00;;;;4984148;28;86758;-60
2022/10/03 02:46:05;;;;;;;3.70;1.77;;;11.10;99.90;11.00;100909.00;;;;4983820;28;87465;-60
2022/10/03 02:49:27;;;;;;;2.97;1.50;;;11.10;99.90;11.10;100911.00;;;;4978892;28;88747;-60
2022/10/03 02:52:25;;;;;;;4.30;1.27;;;11.10;99.90;11.10;100920.00;;;;4975479;28;89023;-60
2022/10/03 02:55:13;;;;;;;3.63;1.60;;;11.20;99.90;11.10;100926.00;;;;4987890;28;104173;-60
2022/10/03 02:58:31;;;;;;;1.83;1.10;;;11.20;99.90;11.10;100931.00;;;;4975987;28;87333;-60
2022/10/03 03:01:41;;;;;;;1.10;1.00;;;11.20;99.90;11.20;100923.00;;;;4986547;28;89211;-60
2022/10/03 03:05:09;;;;;;;3.73;1.70;;;11.20;99.90;11.20;100930.00;;;;4998155;28;111464;-60
2022/10/03 03:08:10;;;;;;;1.37;1.23;;;11.30;99.90;11.30;100935.00;;;;4959464;28;103721;-60
2022/10/03 03:11:05;;;;;;;6.70;1.80;;;11.40;99.90;11.30;100935.00;;;;4987401;28;96494;-60
2022/10/03 03:14:15;;;;;;;1.77;1.17;;;11.40;99.90;11.30;100935.00;;;;5002019;28;89515;-60
2022/10/03 03:16:48;;;;;;;3.57;1.73;;;11.40;99.90;11.40;100933.00;;;;4990102;28;108936;-60
2022/10/03 03:19:36;;;;;;;1.03;0.80;;;11.40;99.90;11.40;100937.00;;;;4982892;28;86989;-59
2022/10/03 03:22:16;;;;;;;2.47;1.50;;;11.50;99.90;11.40;100927.00;;;;4946620;28;89026;-60
2022/10/03 03:25:18;;;;;;;5.90;1.60;;;11.50;99.90;11.40;100939.00;;;;4955695;28;100179;-59
2022/10/03 03:28:21;;;;;;;1.53;1.17;;;11.50;99.90;11.50;100932.00;;;;4998685;28;108019;-59
2022/10/03 03:31:13;;;;;;;5.43;2.47;;;11.50;99.90;11.50;100927.00;;;;4987309;28;87936;-59
2022/10/03 03:33:57;;;;;;;3.47;1.40;;;11.50;99.90;11.50;100932.00;;;;4987880;28;87209;-59
2022/10/03 03:36:54;;;;;;;1.00;0.83;;;11.60;99.90;11.50;100924.00;;;;4979080;28;87582;-59
2022/10/03 03:40:02;;;;;;;2.73;1.60;;;11.60;99.90;11.50;100923.00;;;;4988602;28;88074;-59
2022/10/03 03:43:19;;;;;;;3.23;1.47;;;11.60;99.90;11.50;100919.00;;;;5002566;28;98254;-58
2022/10/03 03:46:11;;;;;;;2.47;1.43;;;11.50;99.90;11.50;100930.00;;;;4959588;28;89171;-59
2022/10/03 03:49:00;;;;;;;5.27;1.60;;;11.50;99.90;11.40;100927.00;;;;4988443;28;111030;-59
2022/10/03 03:51:59;;;;;;;7.83;0.93;;;11.50;99.90;11.30;100929.00;;;;4985927;28;89091;-59
2022/10/03 03:54:49;;;;;;;3.07;1.30;;;11.40;99.90;11.30;100933.00;;;;4983729;28;87441;-59
2022/10/03 03:57:35;;;;;;;6.53;1.23;;;11.30;99.90;11.20;100939.00;;;;4990006;28;87638;-59
2022/10/03 04:00:30;;;;;;;2.33;0.80;;;11.30;99.90;11.30;100942.00;;;;4980946;28;101033;-59
2022/10/03 04:03:29;;;;;;;4.47;1.47;;;11.30;99.90;11.20;100947.00;;;;4981606;28;88451;-59
2022/10/03 04:06:25;;;;;;;3.13;1.07;;;11.30;99.90;11.20;100938.00;;;;4988628;28;97626;-59
2022/10/03 04:09:25;;;;;;;10.50;1.87;;;11.30;99.90;11.20;100939.00;;;;4987207;28;98013;-59
2022/10/03 04:12:25;;;;;;;3.87;1.27;;;11.30;99.90;11.10;100949.00;;;;4987589;28;87788;-59
2022/10/03 04:15:21;;;;;;;2.57;1.20;;;11.20;99.90;11.20;100949.00;;;;4994463;28;100839;-59
2022/10/03 04:21:11;;;;;;;2.30;1.57;;;11.40;99.90;11.30;100950.00;;;;4983023;28;88512;-59
2022/10/03 04:23:51;;;;;;;1.63;1.20;;;11.30;99.90;11.30;100949.00;;;;4984389;28;87407;-59
2022/10/03 04:26:40;;;;;;;2.37;1.13;;;11.40;99.90;11.40;100954.00;;;;4983654;28;97655;-59
2022/10/03 04:29:45;;;;;;;1.00;0.70;;;11.40;99.90;11.40;100946.00;;;;5015591;28;87403;-59
2022/10/03 04:32:40;;;;;;;3.17;1.30;;;11.40;99.90;11.40;100956.00;;;;4986854;28;87522;-59
2022/10/03 04:35:46;;;;;;;6.33;1.00;;;11.40;99.90;11.40;100949.00;;;;4977522;28;88609;-59
2022/10/03 04:39:21;;;;;;;2.10;1.17;;;11.50;99.90;11.40;100946.00;;;;4980545;28;102718;-60
2022/10/03 04:41:58;;;;;;;0.73;0.73;;;11.50;99.90;11.50;100965.00;;;;4907131;28;86407;-59
2022/10/03 04:44:43;;;;;;;6.73;1.37;;;11.50;99.90;11.50;100960.00;;;;4977267;28;87351;-59
2022/10/03 04:47:41;;;;;;;2.23;1.00;;;11.50;99.90;11.50;100961.00;;;;4985602;28;108721;-59
2022/10/03 04:50:49;;;;;;;2.70;1.10;;;11.50;99.90;11.50;100963.00;;;;5005105;28;90274;-59
2022/10/03 04:54:07;;;;;;;6.60;1.23;;;11.60;99.90;11.50;100959.00;;;;4985460;28;102398;-59
2022/10/03 04:57:14;;;;;;;5.23;1.47;;;11.50;99.90;11.40;100957.00;;;;4982206;28;87399;-59
2022/10/03 04:59:52;;;;;;;8.37;1.70;;;11.50;99.90;11.50;100966.00;;;;4979807;28;88567;-59
2022/10/03 05:03:13;;;;;;;0.97;0.93;;;11.50;99.90;11.40;100963.00;;;;4987678;28;110992;-58
2022/10/03 05:05:53;;;;;;;1.33;0.97;;;11.50;99.90;11.40;100953.00;;;;4987939;28;100829;-59
2022/10/03 05:08:34;;;;;;;3.27;1.43;;;11.50;99.90;11.40;100966.00;;;;4984636;28;87016;-59
2022/10/03 05:11:27;;;;;;;4.67;1.47;;;11.40;99.90;11.40;100966.00;;;;4983683;28;87381;-59
2022/10/03 05:14:10;;;;;;;7.93;1.47;;;11.50;99.90;11.40;100975.00;;;;4978484;28;87676;-57
2022/10/03 05:17:06;;;;;;;7.50;1.10;;;11.50;99.90;11.50;100971.00;;;;4988025;28;87531;-58
2022/10/03 05:20:12;;;;;;;1.20;1.10;;;11.50;99.90;11.50;100975.00;;;;4986230;28;95548;-59
2022/10/03 05:22:52;;;;;;;4.27;1.27;;;11.50;99.90;11.50;100968.00;;;;4985743;28;109448;-59
2022/10/03 05:25:33;;;;;;;3.33;1.67;;;11.60;99.90;11.50;100982.00;;;;4999735;28;87322;-59
2022/10/03 05:28:29;;;;;;;3.77;1.20;;;11.60;99.90;11.60;100985.00;;;;4986857;28;86920;-59
2022/10/03 05:31:06;;;;;;;1.03;0.73;;;11.60;99.90;11.60;100981.00;;;;4992596;28;86903;-58
2022/10/03 05:33:59;;;;;;;1.13;1.03;;;11.60;99.90;11.60;100982.00;;;;4986537;28;88473;-59
2022/10/03 05:37:08;;;;;;;2.10;1.10;;;11.60;99.90;11.50;100975.00;;;;4996065;28;88241;-58
2022/10/03 05:39:52;;;;;;;1.33;1.03;;;11.60;99.90;11.50;100979.00;;;;4970913;28;86960;-59
2022/10/03 05:42:57;;;;;;;1.57;1.00;;;11.60;99.90;11.50;100987.00;;;;4985687;28;87408;-57
2022/10/03 05:45:37;;;;;;;13.43;1.43;;;11.60;99.90;11.60;100995.00;;;;4987950;28;88084;-58
2022/10/03 05:48:49;;;;;;;3.07;1.73;;;11.60;99.90;11.60;100994.00;;;;4987661;28;111514;-59
2022/10/03 05:51:45;;;;;;;3.03;1.10;;;11.60;99.90;11.60;100994.00;;;;4986966;28;87488;-59
2022/10/03 05:54:39;;;;;;;1.63;1.27;;;11.60;99.90;11.60;100994.00;;;;4985740;28;87844;-59
2022/10/03 05:57:33;;;;;;;1.87;1.40;;;11.70;99.90;11.60;101003.00;;;;4985640;28;88536;-58
2022/10/03 06:00:29;;;;;;;3.33;1.30;;;11.70;99.90;11.60;101009.00;;;;5002812;28;110453;-59
2022/10/03 06:03:03;;;;;;;1.47;1.27;;;11.60;99.90;11.60;101005.00;;;;4986496;28;102394;-59
2022/10/03 06:05:59;;;;;;;3.57;1.10;;;11.70;99.90;11.60;101003.00;;;;4988393;28;87999;-58
2022/10/03 06:08:53;;;;;;;3.47;1.50;;;11.60;99.90;11.60;101007.00;;;;4986309;28;87265;-59
2022/10/03 06:12:03;;;;;;;5.53;1.20;;;11.70;99.90;11.60;101008.00;;;;4983812;28;110303;-57
2022/10/03 06:15:02;;;;;;;6.13;1.33;;;11.70;99.90;11.60;101014.00;;;;4987909;28;87644;-59
2022/10/03 06:18:00;;;;;;;1.23;1.00;;;11.60;99.90;11.60;101018.00;;;;4989944;28;88378;-58
2022/10/03 06:21:04;;;;;;;1.77;1.17;;;11.60;99.90;11.50;101019.00;;;;4986669;28;88543;-59
2022/10/03 06:23:40;;;;;;;2.57;0.80;;;11.60;99.90;11.60;101015.00;;;;4985481;28;87701;-59
2022/10/03 06:26:57;;;;;;;3.47;1.23;;;11.60;99.90;11.60;101030.00;;;;4979592;28;101003;-58
2022/10/03 06:30:11;;;;;;;7.33;1.43;;;11.60;99.90;11.60;101033.00;;;;4986555;28;93978;-59
2022/10/03 06:33:13;;;;;;;3.00;1.40;;;11.60;99.90;11.60;101043.00;;;;4984906;28;97646;-58
2022/10/03 06:36:18;;;;;;;1.33;1.23;;;11.70;99.90;11.70;101053.00;;;;4984159;28;87888;-59
2022/10/03 06:39:05;;;;;;;1.20;1.10;;;11.70;99.90;11.70;101050.00;;;;4987856;28;87533;-59
2022/10/03 06:42:17;;;;;;;2.97;1.30;;;11.70;99.90;11.70;101054.00;;;;4987690;28;92750;-59
2022/10/03 06:45:10;;;;;;;2.97;1.07;;;11.70;99.90;11.70;101051.00;;;;5004430;28;88264;-59
2022/10/03 06:48:12;;;;;;;6.43;1.60;;;11.70;99.90;11.60;101054.00;;;;4983780;28;88713;-59
2022/10/03 06:51:27;;;;;;;2.37;1.17;;;11.70;99.90;11.60;101061.00;;;;4986826;28;87427;-60
2022/10/03 06:54:21;;;;;;;3.07;1.20;;;11.70;99.90;11.60;101064.00;;;;4981293;28;100876;-59
2022/10/03 06:57:34;;;;;;;1.23;0.70;;;11.60;99.90;11.60;101064.00;;;;4986530;28;88219;-59
2022/10/03 07:00:10;;;;;;;2.30;1.47;;;11.60;99.90;11.60;101065.00;;;;4986008;28;88296;-58
2022/10/03 07:03:10;;;;;;;5.10;1.27;;;11.60;99.90;11.70;101063.00;;;;4986194;28;87860;-59
2022/10/03 07:06:38;;;;;;;1.60;1.27;;;11.70;99.90;11.80;101077.00;;;;5001105;28;100072;-59
2022/10/03 07:09:28;;;;;;;2.40;1.17;;;11.80;99.90;11.80;101064.00;;;;4984633;28;108309;-59
2022/10/03 07:12:52;;;;;;;5.03;1.50;;;11.90;99.90;11.90;101069.00;;;;4982704;28;87394;-59
2022/10/03 07:15:48;;;;;;;5.80;1.80;;;11.90;99.90;12.00;101068.00;;;;4984670;28;87389;-60
2022/10/03 07:18:41;;;;;;;3.30;1.40;;;12.00;99.90;12.10;101075.00;;;;4984940;28;88875;-60
2022/10/03 07:21:27;;;;;;;1.60;0.97;;;12.10;99.90;12.10;101079.00;;;;4985127;28;102848;-59
2022/10/03 07:24:39;;;;;;;6.73;1.53;;;12.10;99.90;12.20;101082.00;;;;4997379;28;110595;-59
2022/10/03 07:27:46;;;;;;;1.67;1.20;;;12.20;99.90;12.30;101081.00;;;;5001552;28;87830;-59
2022/10/03 07:30:29;;;;;;;1.57;1.30;;;12.30;99.90;12.40;101091.00;;;;4981400;28;87503;-59
2022/10/03 07:33:25;;;;;;;4.17;1.50;;;12.40;99.90;12.50;101087.00;;;;4996525;28;108132;-60
2022/10/03 07:39:48;;;;;;;7.20;0.97;;;12.50;99.90;12.60;101087.00;;;;4999871;28;87161;-59
2022/10/03 07:42:54;;;;;;;2.93;1.40;;;12.50;99.90;12.60;101086.00;;;;4989144;28;103382;-59
2022/10/03 07:45:40;;;;;;;2.00;1.13;;;12.60;99.90;12.60;101090.00;;;;4984396;28;111758;-61
2022/10/03 07:48:58;;;;;;;3.07;0.70;;;12.60;99.90;12.60;101089.00;;;;4985369;28;88269;-60
2022/10/03 07:52:30;;;;;;;1.80;1.40;;;12.70;99.90;12.70;101100.00;;;;4980055;28;87457;-59
2022/10/03 07:55:41;;;;;;;4.87;1.07;;;12.70;99.90;12.70;101103.00;;;;4981505;28;87540;-60
2022/10/03 07:58:38;;;;;;;1.27;1.10;;;12.70;99.90;12.70;101109.00;;;;4984864;28;105406;-60
2022/10/03 08:01:22;;;;;;;4.63;1.63;;;12.80;99.90;12.70;101104.00;;;;4985571;28;88213;-61
2022/10/03 08:04:22;;;;;;;0.83;0.83;;;12.80;99.90;12.60;101120.00;;;;4989346;28;96896;-61
2022/10/03 08:07:31;;;;;;;4.23;1.80;;;12.70;99.90;12.50;101110.00;;;;4984375;28;86901;-62
2022/10/03 08:10:41;;;;;;;1.17;1.07;;;12.60;99.90;12.40;101114.00;;;;4984010;28;87952;-61
2022/10/03 08:13:25;;;;;;;2.70;1.17;;;12.50;99.90;12.30;101115.00;;;;4982363;28;87935;-61
2022/10/03 08:16:23;;;;;;;2.67;0.83;;;12.40;99.90;12.30;101120.00;;;;4985711;28;87406;-61
2022/10/03 08:19:24;;;;;;;2.50;1.00;;;12.30;99.90;12.30;101123.00;;;;4982403;28;89414;-60
2022/10/03 08:22:30;;;;;;;4.90;2.30;;;12.30;99.90;12.30;101127.00;;;;5000576;28;108311;-61
2022/10/03 08:25:16;;;;;;;2.27;1.07;;;12.30;99.90;12.40;101136.00;;;;4986996;28;87664;-59
2022/10/03 08:28:04;;;;;;;1.93;1.00;;;12.40;99.90;12.40;101127.00;;;;4986881;28;87976;-60
2022/10/03 08:31:07;;;;;;;2.17;1.13;;;12.50;99.90;12.60;101129.00;;;;4985564;28;87635;-60
2022/10/03 08:34:21;;;;;;;4.93;1.00;;;12.50;99.90;12.70;101131.00;;;;4983016;28;88723;-60
2022/10/03 08:37:35;;;;;;;2.70;1.30;;;12.60;99.90;12.90;101132.00;;;;4986116;28;110582;-58
2022/10/03 08:40:39;;;;;;;1.93;1.20;;;12.90;99.90;13.20;101138.00;;;;4987578;28;86613;-60
2022/10/03 08:43:39;;;;;;;1.80;1.43;;;13.10;99.90;13.30;101140.00;;;;4980569;28;87234;-58
2022/10/03 08:46:28;;;;;;;3.13;1.70;;;13.20;99.90;13.70;101138.00;;;;4984089;28;97359;-60
2022/10/03 08:49:40;;;;;;;1.30;1.00;;;13.50;99.90;13.90;101135.00;;;;4985092;28;88358;-61
2022/10/03 08:52:42;;;;;;;1.93;0.97;;;13.80;99.90;14.20;101135.00;;;;4985394;28;87737;-60
2022/10/03 08:55:42;;;;;;;3.53;1.37;;;14.10;99.90;14.30;101137.00;;;;4984316;28;87834;-60
2022/10/03 08:58:56;;;;;;;5.40;1.47;;;14.30;99.90;14.30;101118.00;;;;4985891;28;88645;-60
2022/10/03 09:01:49;;;;;;;2.00;1.23;;;14.30;99.90;14.30;101139.00;;;;4989121;28;101572;-61
2022/10/03 09:04:58;;;;;;;1.60;1.40;;;14.30;99.90;14.10;101141.00;;;;4985451;28;87577;-61
2022/10/03 09:07:45;;;;;;;1.00;0.83;;;14.20;99.90;14.10;101146.00;;;;4986327;28;104834;-60
2022/10/03 09:10:57;;;;;;;5.33;1.50;;;14.10;99.90;14.00;101144.00;;;;4985022;28;86816;-60
2022/10/03 09:14:06;;;;;;;1.57;0.90;;;14.00;99.90;14.00;101150.00;;;;5006152;28;110430;-60
2022/10/03 09:17:24;;;;;;;7.67;1.47;;;14.00;99.90;14.00;101141.00;;;;4983333;28;104275;-60
2022/10/03 09:20:05;;;;;;;4.37;0.90;;;13.90;99.90;14.30;101143.00;;;;4985385;28;88354;-59
2022/10/03 09:23:12;;;;;;;2.67;1.37;;;14.10;99.90;14.70;101143.00;;;;4989708;28;89517;-59
2022/10/03 09:25:51;;;;;;;4.90;1.60;;;14.50;99.90;14.90;101146.00;;;;4988964;28;109657;-59
2022/10/03 09:29:00;;;;;;;0.98;0.73;;;14.80;99.90;14.90;101147.00;;;;5017358;27;87386;-60
2022/10/03 09:31:54;;;;;;;4.00;1.33;;;14.90;99.90;14.90;101143.00;;;;4983353;28;87562;-60
2022/10/03 09:35:09;;;;;;;2.93;0.97;;;14.90;99.90;15.00;101139.00;;;;5009780;27;110721;-60
2022/10/03 09:38:20;;;;;;;1.20;1.10;;;14.90;99.90;15.20;101133.00;;;;4954938;28;87694;-60
2022/10/03 09:41:36;;;;;;;2.10;1.20;;;15.10;99.90;15.70;101135.00;;;;4957948;28;86941;-59
2022/10/03 09:44:40;;;;;;;2.47;1.08;;;15.40;99.90;16.00;101148.00;;;;4933164;28;87902;-59
2022/10/03 09:47:54;;;;;;;1.00;0.75;;;15.90;99.90;16.20;101146.00;;;;4987424;28;88881;-59
2022/10/03 09:50:55;;;;;;;1.77;0.85;;;16.10;99.90;16.40;101145.00;;;;4984880;28;88398;-60
2022/10/03 09:53:49;;;;;;;2.28;1.00;;;16.30;99.90;16.80;101153.00;;;;4967837;28;87264;-59
2022/10/03 09:56:37;;;;;;;1.85;1.08;;;16.60;99.90;17.30;101143.00;;;;4987347;28;97950;-59
2022/10/03 09:59:10;;;;;;;1.08;0.60;;;17.00;99.90;17.70;101149.00;;;;4989850;28;100902;-59
2022/10/03 10:02:28;;;;;;;2.15;1.30;;;17.50;99.90;18.00;101153.00;;;;4989372;28;88129;-60
2022/10/03 10:05:17;;;;;;;4.47;0.95;;;17.80;99.10;18.40;101138.00;;;;4976578;28;87467;-60
2022/10/03 10:08:17;;;;;;;1.48;0.77;;;18.10;98.20;18.50;101143.00;;;;4951341;28;95055;-60
2022/10/03 10:11:10;;;;;;;6.28;0.95;;;18.30;97.60;18.30;101135.00;;;;4973050;28;87217;-60
2022/10/03 10:14:34;;;;;;;5.03;0.95;;;18.30;94.20;18.00;101158.00;;;;4983873;28;87387;-60
2022/10/03 10:17:33;;;;;;;4.53;2.03;;;18.10;94.40;17.70;101162.00;;;;4981571;28;87675;-60
2022/10/03 10:20:19;;;;;;;0.70;0.50;;;17.80;94.30;17.40;101158.00;;;;4993948;28;88556;-61
2022/10/03 10:23:27;;;;;;;3.90;0.73;;;17.50;93.50;17.10;101161.00;;;;4951453;28;106432;-59
2022/10/03 10:26:15;;;;;;;1.75;1.00;;;17.20;94.10;17.20;101157.00;;;;4949806;28;107890;-59
2022/10/03 10:29:22;;;;;;;1.88;1.00;;;17.10;95.00;17.20;101160.00;;;;4951828;28;93515;-59
2022/10/03 10:32:43;;;;;;;3.20;0.80;;;17.20;94.30;17.00;101164.00;;;;4982735;28;91314;-59
2022/10/03 10:35:50;;;;;;;0.88;0.70;;;17.00;94.60;16.90;101163.00;;;;4991003;28;88097;-59
2022/10/03 10:38:42;;;;;;;1.83;0.73;;;16.90;94.80;17.10;101167.00;;;;4999141;28;87722;-60
2022/10/03 10:41:52;;;;;;;3.90;1.13;;;16.90;95.50;17.50;101169.00;;;;4985639;28;86408;-59
2022/10/03 10:45:08;;;;;;;1.20;0.70;;;17.30;94.60;17.60;101164.00;;;;4986710;28;101981;-59
2022/10/03 10:48:15;;;;;;;1.25;0.68;;;17.40;92.90;17.70;101156.00;;;;4951941;28;88345;-58
2022/10/03 10:51:59;;;;;;;1.60;0.75;;;17.50;93.10;17.80;101151.00;;;;4969787;28;88593;-58
2022/10/03 10:55:08;;;;;;;3.95;1.08;;;17.60;92.40;18.20;101162.00;;;;4982229;28;87800;-59
2022/10/03 10:58:46;;;;;;;3.70;0.85;;;17.90;92.50;18.60;101165.00;;;;4991023;28;87527;-59
2022/10/03 11:02:08;;;;;;;4.13;0.93;;;18.30;92.70;19.20;101158.00;;;;4966246;28;87706;-59
2022/10/03 11:05:18;;;;;;;1.40;0.77;;;18.70;92.70;19.70;101156.00;;;;4988086;28;87256;-58
2022/10/03 11:08:41;;;;;;;0.77;0.60;;;19.30;90.90;20.10;101159.00;;;;4980711;28;95008;-59
2022/10/03 11:11:40;;;;;;;1.38;0.90;;;19.70;85.10;20.30;101164.00;;;;4987377;28;87162;-59
2022/10/03 11:15:08;;;;;;;1.17;0.63;;;19.90;83.60;20.40;101166.00;;;;4967934;28;113899;-59
2022/10/03 11:18:24;;;;;;;3.03;0.52;;;20.10;83.90;20.40;101171.00;;;;4962261;28;87818;-59
2022/10/03 11:21:37;;;;;;;0.95;0.80;;;20.10;82.00;20.50;101164.00;;;;4987395;28;87699;-60
2022/10/03 11:24:52;;;;;;;6.15;0.95;;;20.20;80.50;20.20;101166.00;;;;4984363;28;88590;-60
2022/10/03 11:27:56;;;;;;;3.72;0.68;;;20.20;78.00;20.00;101173.00;;;;4975850;28;87747;-59
2022/10/03 11:30:48;;;;;;;2.47;0.65;;;19.90;79.00;19.90;101158.00;;;;4986531;28;95239;-59
2022/10/03 11:34:03;;;;;;;1.00;0.52;;;19.80;79.70;19.80;101161.00;;;;4954165;28;87685;-58
2022/10/03 11:37:05;;;;;;;1.15;1.02;;;19.70;78.30;19.60;101167.00;;;;4954467;28;102286;-59
2022/10/03 11:40:06;;;;;;;0.70;0.70;;;19.50;78.60;19.30;101167.00;;;;4960937;28;88426;-59
2022/10/03 11:42:53;;;;;;;3.03;0.77;;;19.30;77.70;19.20;101180.00;;;;4984450;28;87513;-59
2022/10/03 11:45:32;;;;;;;1.95;0.93;;;19.10;79.10;19.30;101170.00;;;;4986390;28;86173;-59
2022/10/03 11:48:38;;;;;;;1.98;0.85;;;19.10;79.20;19.20;101175.00;;;;4978846;28;87368;-59
2022/10/03 11:51:35;;;;;;;1.95;0.73;;;19.10;79.60;19.20;101182.00;;;;4978656;28;89065;-59
2022/10/03 11:54:21;;;;;;;1.33;0.80;;;19.00;80.20;19.00;101181.00;;;;4986327;28;111090;-57
2022/10/03 11:57:01;;;;;;;4.05;1.35;;;19.00;79.50;18.90;101185.00;;;;4990069;28;87813;-59
2022/10/03 11:59:54;;;;;;;3.47;1.30;;;18.80;81.00;18.80;101181.00;;;;4975621;28;87434;-58
2022/10/03 12:02:54;;;;;;;2.30;0.75;;;18.70;81.90;18.80;101178.00;;;;4949002;28;87880;-57
2022/10/03 12:05:41;;;;;;;3.80;0.60;;;18.60;82.20;18.90;101182.00;;;;4978133;28;98672;-59
2022/10/03 12:11:22;;;;;;;1.30;0.70;;;18.70;81.50;18.60;101174.00;;;;4978027;28;88094;-59
2022/10/03 12:14:05;;;;;;;8.77;1.40;;;18.50;82.40;18.50;101166.00;;;;4978405;28;87248;-59
2022/10/03 12:17:15;;;;;;;4.65;1.20;;;18.40;83.60;18.80;101177.00;;;;4990062;28;87684;-59
2022/10/03 12:20:22;;;;;;;2.28;0.70;;;18.60;84.60;18.80;101182.00;;;;5000475;28;87503;-59
2022/10/03 12:22:52;;;;;;;0.98;0.88;;;18.70;82.80;18.80;101172.00;;;;4936534;28;88721;-59
2022/10/03 12:25:29;;;;;;;1.45;0.73;;;18.60;81.90;18.70;101188.00;;;;4982338;28;88921;-59
2022/10/03 12:28:21;;;;;;;1.45;0.88;;;18.60;80.90;18.80;101177.00;;;;4984940;28;88602;-59
2022/10/03 12:31:21;;;;;;;7.72;0.88;;;18.60;82.70;19.00;101177.00;;;;4985190;28;87416;-58
2022/10/03 12:34:08;;;;;;;0.68;0.50;;;18.70;81.80;18.90;101188.00;;;;4982418;28;87476;-57
2022/10/03 12:36:55;;;;;;;1.17;0.40;;;18.80;80.40;18.70;101187.00;;;;4975727;28;96278;-59
2022/10/03 12:39:43;;;;;;;2.28;0.60;;;18.60;81.80;18.50;101188.00;;;;4986360;28;88651;-59
2022/10/03 12:42:33;;;;;;;2.10;0.88;;;18.40;82.40;18.30;101194.00;;;;4983708;28;86706;-59
2022/10/03 12:45:29;;;;;;;1.65;0.93;;;18.30;83.30;18.00;101196.00;;;;4978493;28;87653;-59
2022/10/03 12:48:13;;;;;;;0.80;0.50;;;18.00;84.20;17.70;101198.00;;;;4981605;28;112167;-58
2022/10/03 12:51:04;;;;;;;2.22;0.70;;;17.70;85.70;17.50;101193.00;;;;4980879;28;88314;-60
2022/10/03 12:53:37;;;;;;;3.50;0.70;;;17.60;86.90;17.50;101191.00;;;;4983477;28;87528;-59
2022/10/03 12:56:06;;;;;;;1.42;0.60;;;17.40;88.20;17.50;101196.00;;;;4975182;28;87090;-59
2022/10/03 12:59:15;;;;;;;1.17;0.65;;;17.40;88.60;17.40;101200.00;;;;4976752;28;87736;-59
2022/10/03 13:01:58;;;;;;;1.30;0.95;;;17.30;90.30;17.30;101208.00;;;;4980888;28;109105;-60
2022/10/03 13:05:32;;;;;;;1.02;0.93;;;17.30;91.30;16.90;101205.00;;;;4983808;28;87404;-59
2022/10/03 13:08:34;;;;;;;3.78;0.95;;;17.00;92.00;16.60;101204.00;;;;4983052;28;87310;-60
2022/10/03 13:11:41;;;;;;;4.03;0.85;;;16.70;93.60;16.30;101201.00;;;;4982877;28;87255;-60
2022/10/03 13:14:26;;;;;;;1.40;0.70;;;16.40;94.70;16.00;101181.00;;;;4986538;28;87697;-60
2022/10/03 13:17:24;;;;;;;6.25;0.98;;;16.10;95.80;15.80;101192.00;;;;4948968;28;87848;-59